aviador You're here:

ZBAA Decoded Metar

BEIJING in CHINA
Report Time2017-11-23 03:00:00
UTC Time2017-11-23 03:25:55
Flight Rules vfr VFR
Wind260° at 10 kt
W.Decomp.*RWY 19: 2.4 kt HW 9.7 kt RCW
RWY 18: 0.7 kt HW 10.0 kt RCW
W.Rank260° ranks 35
Current wind is above 260° avg. (6.9)
Visibility9999 m
Phenomena:N/A
Clouds:N/A
Expected CloudBase > 10,400 ft AGL from Temp-Dew spread
CeilingNone
Temp05°C (ISA -10)
Dew Point-21°C (13% RH)
AAT-2.2°C
QNH1023 hPa
Density Alt-1,404 ft
Elevation98 ft
Report Wrong Elevation
Raw Report
ZBAA 230300Z 26005MPS 230V340 CAVOK 05/M21 Q1023 NOSIG=

Extra information for ZBAA:More info

Metar Taf Metar & Taf Last 4 Metars F.Rules Stats Wind Profile Meteogram Temp Stats Airport Information Weather charts Add Link Nearby VenuesMetar ALERT Operation Metar Decoded Social comments